sensor_id;sensor_type;location;lat;lon;timestamp;P1;durP1;ratioP1;P2;durP2;ratioP2
55186;SDS011;55457;52.002;5.464;2023-07-20T00:01:20;3.97;;;1.42;;
55186;SDS011;55457;52.002;5.464;2023-07-20T00:03:46;2.92;;;1.55;;
55186;SDS011;55457;52.002;5.464;2023-07-20T00:06:19;3.65;;;1.23;;
55186;SDS011;55457;52.002;5.464;2023-07-20T00:08:45;3.58;;;1.00;;
55186;SDS011;55457;52.002;5.464;2023-07-20T00:11:10;2.42;;;1.38;;
55186;SDS011;55457;52.002;5.464;2023-07-20T00:13:35;3.35;;;1.48;;
55186;SDS011;55457;52.002;5.464;2023-07-20T00:16:01;4.28;;;1.25;;
55186;SDS011;55457;52.002;5.464;2023-07-20T00:18:26;2.85;;;1.10;;
55186;SDS011;55457;52.002;5.464;2023-07-20T00:20:51;2.13;;;1.15;;
55186;SDS011;55457;52.002;5.464;2023-07-20T00:23:17;2.67;;;1.25;;
55186;SDS011;55457;52.002;5.464;2023-07-20T00:25:42;2.33;;;1.25;;
55186;SDS011;55457;52.002;5.464;2023-07-20T00:28:08;3.20;;;1.13;;
55186;SDS011;55457;52.002;5.464;2023-07-20T00:30:33;4.50;;;1.25;;
55186;SDS011;55457;52.002;5.464;2023-07-20T00:32:59;2.35;;;1.17;;
55186;SDS011;55457;52.002;5.464;2023-07-20T00:35:24;4.55;;;1.30;;
55186;SDS011;55457;52.002;5.464;2023-07-20T00:37:50;2.22;;;1.10;;
55186;SDS011;55457;52.002;5.464;2023-07-20T00:40:15;3.85;;;1.20;;
55186;SDS011;55457;52.002;5.464;2023-07-20T00:42:42;2.55;;;0.90;;
55186;SDS011;55457;52.002;5.464;2023-07-20T00:45:08;2.20;;;1.13;;
55186;SDS011;55457;52.002;5.464;2023-07-20T00:47:33;3.05;;;1.10;;
55186;SDS011;55457;52.002;5.464;2023-07-20T00:49:59;2.58;;;1.15;;
55186;SDS011;55457;52.002;5.464;2023-07-20T00:52:24;5.00;;;1.17;;
55186;SDS011;55457;52.002;5.464;2023-07-20T00:54:52;5.55;;;1.67;;
55186;SDS011;55457;52.002;5.464;2023-07-20T00:57:21;4.68;;;1.50;;
55186;SDS011;55457;52.002;5.464;2023-07-20T00:59:47;2.78;;;1.20;;
55186;SDS011;55457;52.002;5.464;2023-07-20T01:02:14;1.98;;;0.95;;
55186;SDS011;55457;52.002;5.464;2023-07-20T01:04:40;3.92;;;1.30;;
55186;SDS011;55457;52.002;5.464;2023-07-20T01:07:09;2.45;;;1.25;;
55186;SDS011;55457;52.002;5.464;2023-07-20T01:09:42;3.25;;;1.08;;
55186;SDS011;55457;52.002;5.464;2023-07-20T01:12:13;2.05;;;0.98;;
55186;SDS011;55457;52.002;5.464;2023-07-20T01:14:45;2.55;;;1.38;;
55186;SDS011;55457;52.002;5.464;2023-07-20T01:17:11;4.13;;;1.17;;
55186;SDS011;55457;52.002;5.464;2023-07-20T01:19:37;1.83;;;1.00;;
55186;SDS011;55457;52.002;5.464;2023-07-20T01:24:45;1.88;;;1.10;;
55186;SDS011;55457;52.002;5.464;2023-07-20T01:32:36;2.20;;;0.77;;
55186;SDS011;55457;52.002;5.464;2023-07-20T01:35:05;0.80;;;0.80;;
55186;SDS011;55457;52.002;5.464;2023-07-20T01:37:31;3.25;;;0.75;;
55186;SDS011;55457;52.002;5.464;2023-07-20T01:39:59;3.47;;;1.33;;
55186;SDS011;55457;52.002;5.464;2023-07-20T01:42:25;4.47;;;1.13;;
55186;SDS011;55457;52.002;5.464;2023-07-20T01:44:51;1.90;;;0.75;;
55186;SDS011;55457;52.002;5.464;2023-07-20T01:47:20;2.47;;;1.02;;
55186;SDS011;55457;52.002;5.464;2023-07-20T01:49:45;1.70;;;1.10;;
55186;SDS011;55457;52.002;5.464;2023-07-20T01:52:10;1.52;;;0.70;;
55186;SDS011;55457;52.002;5.464;2023-07-20T01:54:36;2.38;;;1.02;;
55186;SDS011;55457;52.002;5.464;2023-07-20T01:57:02;2.45;;;0.85;;
55186;SDS011;55457;52.002;5.464;2023-07-20T01:59:27;7.00;;;1.50;;
55186;SDS011;55457;52.002;5.464;2023-07-20T02:01:53;3.67;;;0.90;;
55186;SDS011;55457;52.002;5.464;2023-07-20T02:04:18;3.67;;;1.10;;
55186;SDS011;55457;52.002;5.464;2023-07-20T02:06:43;2.45;;;1.10;;
55186;SDS011;55457;52.002;5.464;2023-07-20T02:09:09;9.18;;;1.17;;
55186;SDS011;55457;52.002;5.464;2023-07-20T02:11:34;4.32;;;1.23;;
55186;SDS011;55457;52.002;5.464;2023-07-20T02:14:00;3.65;;;1.60;;
55186;SDS011;55457;52.002;5.464;2023-07-20T02:16:25;1.38;;;0.95;;
55186;SDS011;55457;52.002;5.464;2023-07-20T02:18:51;4.72;;;1.13;;
55186;SDS011;55457;52.002;5.464;2023-07-20T02:21:17;3.17;;;1.10;;
55186;SDS011;55457;52.002;5.464;2023-07-20T02:23:42;1.42;;;0.95;;
55186;SDS011;55457;52.002;5.464;2023-07-20T02:26:08;5.70;;;1.20;;
55186;SDS011;55457;52.002;5.464;2023-07-20T02:28:33;1.92;;;1.23;;
55186;SDS011;55457;52.002;5.464;2023-07-20T02:30:59;10.93;;;1.73;;
55186;SDS011;55457;52.002;5.464;2023-07-20T02:33:25;2.20;;;0.95;;
55186;SDS011;55457;52.002;5.464;2023-07-20T02:35:51;3.30;;;0.85;;
55186;SDS011;55457;52.002;5.464;2023-07-20T02:38:17;1.00;;;0.70;;
55186;SDS011;55457;52.002;5.464;2023-07-20T02:40:42;2.63;;;0.90;;
55186;SDS011;55457;52.002;5.464;2023-07-20T02:43:07;1.38;;;1.00;;
55186;SDS011;55457;52.002;5.464;2023-07-20T02:45:34;2.13;;;0.90;;
55186;SDS011;55457;52.002;5.464;2023-07-20T02:48:00;1.80;;;1.15;;
55186;SDS011;55457;52.002;5.464;2023-07-20T02:50:26;1.73;;;1.02;;
55186;SDS011;55457;52.002;5.464;2023-07-20T02:52:51;3.78;;;0.80;;
55186;SDS011;55457;52.002;5.464;2023-07-20T02:55:16;3.10;;;1.10;;
55186;SDS011;55457;52.002;5.464;2023-07-20T02:57:42;1.92;;;0.90;;
55186;SDS011;55457;52.002;5.464;2023-07-20T03:00:07;3.45;;;1.40;;
55186;SDS011;55457;52.002;5.464;2023-07-20T03:02:33;5.93;;;1.13;;
55186;SDS011;55457;52.002;5.464;2023-07-20T03:04:59;2.50;;;1.00;;
55186;SDS011;55457;52.002;5.464;2023-07-20T03:07:26;2.72;;;1.55;;
55186;SDS011;55457;52.002;5.464;2023-07-20T03:09:53;3.00;;;1.30;;
55186;SDS011;55457;52.002;5.464;2023-07-20T03:12:18;2.92;;;1.40;;
55186;SDS011;55457;52.002;5.464;2023-07-20T03:14:43;2.20;;;1.02;;
55186;SDS011;55457;52.002;5.464;2023-07-20T03:17:09;5.55;;;0.85;;
55186;SDS011;55457;52.002;5.464;2023-07-20T03:19:34;4.00;;;1.10;;
55186;SDS011;55457;52.002;5.464;2023-07-20T03:21:59;2.72;;;1.00;;
55186;SDS011;55457;52.002;5.464;2023-07-20T03:24:25;2.97;;;1.38;;
55186;SDS011;55457;52.002;5.464;2023-07-20T03:26:50;3.65;;;0.88;;
55186;SDS011;55457;52.002;5.464;2023-07-20T03:29:15;3.22;;;0.95;;
55186;SDS011;55457;52.002;5.464;2023-07-20T03:31:41;0.98;;;0.68;;
55186;SDS011;55457;52.002;5.464;2023-07-20T03:34:06;1.95;;;1.00;;
55186;SDS011;55457;52.002;5.464;2023-07-20T03:36:33;7.07;;;1.08;;
55186;SDS011;55457;52.002;5.464;2023-07-20T03:38:59;2.55;;;0.85;;
55186;SDS011;55457;52.002;5.464;2023-07-20T03:41:24;5.38;;;0.98;;
55186;SDS011;55457;52.002;5.464;2023-07-20T03:43:49;10.70;;;1.85;;
55186;SDS011;55457;52.002;5.464;2023-07-20T03:46:15;3.33;;;1.20;;
55186;SDS011;55457;52.002;5.464;2023-07-20T03:48:40;1.95;;;1.02;;
55186;SDS011;55457;52.002;5.464;2023-07-20T03:51:06;5.85;;;1.00;;
55186;SDS011;55457;52.002;5.464;2023-07-20T03:53:31;3.53;;;0.90;;
55186;SDS011;55457;52.002;5.464;2023-07-20T03:55:57;2.15;;;1.00;;
55186;SDS011;55457;52.002;5.464;2023-07-20T03:58:23;5.35;;;1.80;;
55186;SDS011;55457;52.002;5.464;2023-07-20T04:00:49;2.35;;;0.85;;
55186;SDS011;55457;52.002;5.464;2023-07-20T04:03:16;5.13;;;1.02;;
55186;SDS011;55457;52.002;5.464;2023-07-20T04:05:42;8.52;;;1.17;;
55186;SDS011;55457;52.002;5.464;2023-07-20T04:08:08;7.00;;;1.23;;
55186;SDS011;55457;52.002;5.464;2023-07-20T04:10:36;5.85;;;1.08;;
55186;SDS011;55457;52.002;5.464;2023-07-20T04:13:02;2.17;;;1.00;;
55186;SDS011;55457;52.002;5.464;2023-07-20T04:15:27;3.00;;;0.90;;
55186;SDS011;55457;52.002;5.464;2023-07-20T04:17:52;3.30;;;1.02;;
55186;SDS011;55457;52.002;5.464;2023-07-20T04:20:18;2.38;;;1.15;;
55186;SDS011;55457;52.002;5.464;2023-07-20T04:22:44;1.70;;;0.75;;
55186;SDS011;55457;52.002;5.464;2023-07-20T04:25:09;2.90;;;1.25;;
55186;SDS011;55457;52.002;5.464;2023-07-20T04:27:35;3.53;;;0.90;;
55186;SDS011;55457;52.002;5.464;2023-07-20T04:30:01;1.83;;;0.77;;
55186;SDS011;55457;52.002;5.464;2023-07-20T04:32:27;1.23;;;0.85;;
55186;SDS011;55457;52.002;5.464;2023-07-20T04:34:52;2.97;;;1.30;;
55186;SDS011;55457;52.002;5.464;2023-07-20T04:37:18;3.50;;;0.98;;
55186;SDS011;55457;52.002;5.464;2023-07-20T04:39:43;2.95;;;1.08;;
55186;SDS011;55457;52.002;5.464;2023-07-20T04:42:09;1.05;;;0.60;;
55186;SDS011;55457;52.002;5.464;2023-07-20T04:44:34;2.17;;;1.00;;
55186;SDS011;55457;52.002;5.464;2023-07-20T04:46:59;1.40;;;0.75;;
55186;SDS011;55457;52.002;5.464;2023-07-20T04:49:25;5.82;;;1.35;;
55186;SDS011;55457;52.002;5.464;2023-07-20T04:51:51;5.00;;;1.08;;
55186;SDS011;55457;52.002;5.464;2023-07-20T04:54:16;2.50;;;0.85;;
55186;SDS011;55457;52.002;5.464;2023-07-20T04:56:43;4.78;;;1.27;;
55186;SDS011;55457;52.002;5.464;2023-07-20T04:59:09;3.47;;;1.00;;
55186;SDS011;55457;52.002;5.464;2023-07-20T05:01:34;4.05;;;1.27;;
55186;SDS011;55457;52.002;5.464;2023-07-20T05:03:59;2.42;;;1.15;;
55186;SDS011;55457;52.002;5.464;2023-07-20T05:06:25;2.75;;;1.20;;
55186;SDS011;55457;52.002;5.464;2023-07-20T05:08:51;4.38;;;1.63;;
55186;SDS011;55457;52.002;5.464;2023-07-20T05:11:16;6.03;;;0.90;;
55186;SDS011;55457;52.002;5.464;2023-07-20T05:13:41;3.20;;;1.17;;
55186;SDS011;55457;52.002;5.464;2023-07-20T05:16:07;4.63;;;1.45;;
55186;SDS011;55457;52.002;5.464;2023-07-20T05:18:32;1.52;;;0.93;;
55186;SDS011;55457;52.002;5.464;2023-07-20T05:20:57;3.40;;;1.27;;
55186;SDS011;55457;52.002;5.464;2023-07-20T05:23:23;2.08;;;1.15;;
55186;SDS011;55457;52.002;5.464;2023-07-20T05:25:55;2.25;;;1.00;;
55186;SDS011;55457;52.002;5.464;2023-07-20T05:30:47;2.90;;;0.90;;
55186;SDS011;55457;52.002;5.464;2023-07-20T05:33:12;1.25;;;1.13;;
55186;SDS011;55457;52.002;5.464;2023-07-20T05:35:38;2.38;;;1.08;;
55186;SDS011;55457;52.002;5.464;2023-07-20T05:38:03;2.90;;;1.10;;
55186;SDS011;55457;52.002;5.464;2023-07-20T05:40:30;5.65;;;1.05;;
55186;SDS011;55457;52.002;5.464;2023-07-20T05:42:57;9.82;;;1.88;;
55186;SDS011;55457;52.002;5.464;2023-07-20T05:45:22;5.03;;;0.90;;
55186;SDS011;55457;52.002;5.464;2023-07-20T05:47:48;3.83;;;0.95;;
55186;SDS011;55457;52.002;5.464;2023-07-20T05:50:13;4.03;;;1.60;;
55186;SDS011;55457;52.002;5.464;2023-07-20T05:52:39;6.25;;;1.60;;
55186;SDS011;55457;52.002;5.464;2023-07-20T05:55:05;6.53;;;1.52;;
55186;SDS011;55457;52.002;5.464;2023-07-20T05:57:31;10.15;;;1.90;;
55186;SDS011;55457;52.002;5.464;2023-07-20T05:59:57;4.65;;;2.20;;
55186;SDS011;55457;52.002;5.464;2023-07-20T06:02:22;15.32;;;2.28;;
55186;SDS011;55457;52.002;5.464;2023-07-20T06:04:48;13.98;;;2.03;;
55186;SDS011;55457;52.002;5.464;2023-07-20T06:07:13;7.38;;;1.65;;
55186;SDS011;55457;52.002;5.464;2023-07-20T06:09:39;17.25;;;2.60;;
55186;SDS011;55457;52.002;5.464;2023-07-20T06:12:05;2.67;;;1.50;;
55186;SDS011;55457;52.002;5.464;2023-07-20T06:14:30;9.18;;;1.90;;
55186;SDS011;55457;52.002;5.464;2023-07-20T06:16:56;3.30;;;1.30;;
55186;SDS011;55457;52.002;5.464;2023-07-20T06:19:21;4.10;;;1.05;;
55186;SDS011;55457;52.002;5.464;2023-07-20T06:21:47;6.63;;;1.60;;
55186;SDS011;55457;52.002;5.464;2023-07-20T06:24:14;3.35;;;1.15;;
55186;SDS011;55457;52.002;5.464;2023-07-20T06:26:40;6.93;;;1.63;;
55186;SDS011;55457;52.002;5.464;2023-07-20T06:29:05;5.63;;;1.23;;
55186;SDS011;55457;52.002;5.464;2023-07-20T06:31:31;4.57;;;1.50;;
55186;SDS011;55457;52.002;5.464;2023-07-20T06:33:57;8.98;;;1.27;;
55186;SDS011;55457;52.002;5.464;2023-07-20T06:36:23;6.47;;;1.23;;
55186;SDS011;55457;52.002;5.464;2023-07-20T06:38:51;3.08;;;1.00;;
55186;SDS011;55457;52.002;5.464;2023-07-20T06:41:16;4.28;;;1.15;;
55186;SDS011;55457;52.002;5.464;2023-07-20T06:43:42;8.57;;;0.98;;
55186;SDS011;55457;52.002;5.464;2023-07-20T06:46:07;3.45;;;1.38;;
55186;SDS011;55457;52.002;5.464;2023-07-20T06:48:32;4.45;;;0.85;;
55186;SDS011;55457;52.002;5.464;2023-07-20T06:50:58;3.42;;;1.10;;
55186;SDS011;55457;52.002;5.464;2023-07-20T06:53:24;6.18;;;1.20;;
55186;SDS011;55457;52.002;5.464;2023-07-20T06:55:49;2.05;;;1.10;;
55186;SDS011;55457;52.002;5.464;2023-07-20T06:58:15;2.67;;;1.20;;
55186;SDS011;55457;52.002;5.464;2023-07-20T07:00:40;2.55;;;0.77;;
55186;SDS011;55457;52.002;5.464;2023-07-20T07:03:05;2.53;;;1.00;;
55186;SDS011;55457;52.002;5.464;2023-07-20T07:05:34;2.25;;;1.20;;
55186;SDS011;55457;52.002;5.464;2023-07-20T07:08:01;3.40;;;0.80;;
55186;SDS011;55457;52.002;5.464;2023-07-20T07:10:27;3.83;;;0.80;;
55186;SDS011;55457;52.002;5.464;2023-07-20T07:12:52;1.13;;;0.80;;
55186;SDS011;55457;52.002;5.464;2023-07-20T07:15:18;2.05;;;0.80;;
55186;SDS011;55457;52.002;5.464;2023-07-20T07:17:43;1.23;;;0.70;;
55186;SDS011;55457;52.002;5.464;2023-07-20T07:20:09;2.70;;;0.80;;
55186;SDS011;55457;52.002;5.464;2023-07-20T07:22:34;2.88;;;0.65;;
55186;SDS011;55457;52.002;5.464;2023-07-20T07:25:00;1.55;;;0.68;;
55186;SDS011;55457;52.002;5.464;2023-07-20T07:27:25;1.00;;;0.70;;
55186;SDS011;55457;52.002;5.464;2023-07-20T07:29:51;1.95;;;1.17;;
55186;SDS011;55457;52.002;5.464;2023-07-20T07:32:16;3.55;;;0.80;;
55186;SDS011;55457;52.002;5.464;2023-07-20T07:34:41;2.63;;;0.80;;
55186;SDS011;55457;52.002;5.464;2023-07-20T07:37:08;2.08;;;0.68;;
55186;SDS011;55457;52.002;5.464;2023-07-20T07:39:34;1.85;;;0.70;;
55186;SDS011;55457;52.002;5.464;2023-07-20T07:41:59;1.85;;;0.93;;
55186;SDS011;55457;52.002;5.464;2023-07-20T07:44:26;2.22;;;0.70;;
55186;SDS011;55457;52.002;5.464;2023-07-20T07:46:51;1.70;;;0.60;;
55186;SDS011;55457;52.002;5.464;2023-07-20T07:49:16;2.05;;;0.75;;
55186;SDS011;55457;52.002;5.464;2023-07-20T07:54:43;2.13;;;0.63;;
55186;SDS011;55457;52.002;5.464;2023-07-20T07:57:08;0.95;;;0.40;;
55186;SDS011;55457;52.002;5.464;2023-07-20T07:59:33;1.38;;;0.60;;
55186;SDS011;55457;52.002;5.464;2023-07-20T08:02:04;1.48;;;0.70;;
55186;SDS011;55457;52.002;5.464;2023-07-20T08:04:29;5.07;;;1.00;;
55186;SDS011;55457;52.002;5.464;2023-07-20T08:06:55;0.90;;;0.50;;
55186;SDS011;55457;52.002;5.464;2023-07-20T08:09:20;1.67;;;0.65;;
55186;SDS011;55457;52.002;5.464;2023-07-20T08:11:45;0.47;;;0.45;;
55186;SDS011;55457;52.002;5.464;2023-07-20T08:14:11;0.82;;;0.38;;
55186;SDS011;55457;52.002;5.464;2023-07-20T08:16:36;4.50;;;0.95;;
55186;SDS011;55457;52.002;5.464;2023-07-20T08:19:02;1.50;;;0.57;;
55186;SDS011;55457;52.002;5.464;2023-07-20T08:21:27;2.78;;;0.75;;
55186;SDS011;55457;52.002;5.464;2023-07-20T08:23:52;2.47;;;0.55;;
55186;SDS011;55457;52.002;5.464;2023-07-20T08:26:18;0.88;;;0.60;;
55186;SDS011;55457;52.002;5.464;2023-07-20T08:28:44;1.60;;;0.50;;
55186;SDS011;55457;52.002;5.464;2023-07-20T08:31:10;1.05;;;0.70;;
55186;SDS011;55457;52.002;5.464;2023-07-20T08:33:35;1.42;;;0.45;;
55186;SDS011;55457;52.002;5.464;2023-07-20T08:36:01;3.15;;;0.57;;
55186;SDS011;55457;52.002;5.464;2023-07-20T08:38:27;1.10;;;0.60;;
55186;SDS011;55457;52.002;5.464;2023-07-20T08:40:52;0.60;;;0.40;;
55186;SDS011;55457;52.002;5.464;2023-07-20T08:43:19;1.25;;;0.57;;
55186;SDS011;55457;52.002;5.464;2023-07-20T08:45:49;2.75;;;0.68;;
55186;SDS011;55457;52.002;5.464;2023-07-20T08:48:17;0.95;;;0.40;;
55186;SDS011;55457;52.002;5.464;2023-07-20T08:50:45;1.83;;;0.30;;
55186;SDS011;55457;52.002;5.464;2023-07-20T08:53:12;0.70;;;0.25;;
55186;SDS011;55457;52.002;5.464;2023-07-20T08:55:38;0.50;;;0.40;;
55186;SDS011;55457;52.002;5.464;2023-07-20T08:58:05;0.70;;;0.25;;
55186;SDS011;55457;52.002;5.464;2023-07-20T09:00:36;0.52;;;0.30;;
55186;SDS011;55457;52.002;5.464;2023-07-20T09:03:02;1.85;;;0.32;;
55186;SDS011;55457;52.002;5.464;2023-07-20T09:05:28;0.82;;;0.30;;
55186;SDS011;55457;52.002;5.464;2023-07-20T09:07:54;0.73;;;0.47;;
55186;SDS011;55457;52.002;5.464;2023-07-20T09:10:23;0.57;;;0.35;;
55186;SDS011;55457;52.002;5.464;2023-07-20T09:12:49;0.35;;;0.25;;
55186;SDS011;55457;52.002;5.464;2023-07-20T09:15:14;0.93;;;0.28;;
55186;SDS011;55457;52.002;5.464;2023-07-20T09:17:50;0.70;;;0.28;;
55186;SDS011;55457;52.002;5.464;2023-07-20T09:20:18;0.25;;;0.20;;
55186;SDS011;55457;52.002;5.464;2023-07-20T09:22:44;0.88;;;0.35;;
55186;SDS011;55457;52.002;5.464;2023-07-20T09:25:13;0.57;;;0.30;;
55186;SDS011;55457;52.002;5.464;2023-07-20T09:27:44;1.02;;;0.30;;
55186;SDS011;55457;52.002;5.464;2023-07-20T09:30:13;1.45;;;0.35;;
55186;SDS011;55457;52.002;5.464;2023-07-20T09:32:43;1.08;;;0.35;;
55186;SDS011;55457;52.002;5.464;2023-07-20T09:35:16;0.60;;;0.35;;
55186;SDS011;55457;52.002;5.464;2023-07-20T09:37:50;0.77;;;0.35;;
55186;SDS011;55457;52.002;5.464;2023-07-20T09:40:19;0.70;;;0.30;;
55186;SDS011;55457;52.002;5.464;2023-07-20T09:42:45;0.32;;;0.20;;
55186;SDS011;55457;52.002;5.464;2023-07-20T09:45:11;0.63;;;0.30;;
55186;SDS011;55457;52.002;5.464;2023-07-20T09:47:37;0.88;;;0.88;;
55186;SDS011;55457;52.002;5.464;2023-07-20T09:50:03;0.63;;;0.40;;
55186;SDS011;55457;52.002;5.464;2023-07-20T09:52:30;1.42;;;0.20;;
55186;SDS011;55457;52.002;5.464;2023-07-20T09:54:56;1.00;;;0.30;;
55186;SDS011;55457;52.002;5.464;2023-07-20T09:57:22;1.92;;;0.40;;
55186;SDS011;55457;52.002;5.464;2023-07-20T09:59:48;2.10;;;0.45;;
55186;SDS011;55457;52.002;5.464;2023-07-20T10:02:20;0.40;;;0.30;;
55186;SDS011;55457;52.002;5.464;2023-07-20T10:04:50;1.10;;;0.30;;
55186;SDS011;55457;52.002;5.464;2023-07-20T10:07:18;1.23;;;0.40;;
55186;SDS011;55457;52.002;5.464;2023-07-20T10:09:46;0.88;;;0.50;;
55186;SDS011;55457;52.002;5.464;2023-07-20T10:12:13;1.65;;;0.38;;
55186;SDS011;55457;52.002;5.464;2023-07-20T10:14:41;2.33;;;0.50;;
55186;SDS011;55457;52.002;5.464;2023-07-20T10:17:15;2.58;;;0.55;;
55186;SDS011;55457;52.002;5.464;2023-07-20T10:19:44;1.27;;;0.50;;
55186;SDS011;55457;52.002;5.464;2023-07-20T10:22:17;1.67;;;0.50;;
55186;SDS011;55457;52.002;5.464;2023-07-20T10:24:48;0.60;;;0.30;;
55186;SDS011;55457;52.002;5.464;2023-07-20T10:27:15;1.48;;;0.50;;
55186;SDS011;55457;52.002;5.464;2023-07-20T10:29:40;1.23;;;0.50;;
55186;SDS011;55457;52.002;5.464;2023-07-20T10:32:08;1.58;;;0.50;;
55186;SDS011;55457;52.002;5.464;2023-07-20T10:34:34;0.55;;;0.28;;
55186;SDS011;55457;52.002;5.464;2023-07-20T10:36:59;0.95;;;0.25;;
55186;SDS011;55457;52.002;5.464;2023-07-20T10:39:30;1.00;;;0.40;;
55186;SDS011;55457;52.002;5.464;2023-07-20T10:42:03;1.27;;;0.30;;
55186;SDS011;55457;52.002;5.464;2023-07-20T10:44:33;0.68;;;0.60;;
55186;SDS011;55457;52.002;5.464;2023-07-20T10:47:02;1.10;;;0.50;;
55186;SDS011;55457;52.002;5.464;2023-07-20T10:51:58;0.65;;;0.50;;
55186;SDS011;55457;52.002;5.464;2023-07-20T10:56:50;1.23;;;0.43;;
55186;SDS011;55457;52.002;5.464;2023-07-20T11:01:44;0.70;;;0.30;;
55186;SDS011;55457;52.002;5.464;2023-07-20T11:04:12;1.25;;;0.65;;
55186;SDS011;55457;52.002;5.464;2023-07-20T11:06:37;1.60;;;0.47;;
55186;SDS011;55457;52.002;5.464;2023-07-20T11:09:08;0.50;;;0.47;;
55186;SDS011;55457;52.002;5.464;2023-07-20T11:11:36;1.13;;;0.40;;
55186;SDS011;55457;52.002;5.464;2023-07-20T11:14:04;0.85;;;0.50;;
55186;SDS011;55457;52.002;5.464;2023-07-20T11:19:00;4.72;;;0.82;;
55186;SDS011;55457;52.002;5.464;2023-07-20T11:21:26;4.25;;;0.70;;
55186;SDS011;55457;52.002;5.464;2023-07-20T11:23:52;4.88;;;0.47;;
55186;SDS011;55457;52.002;5.464;2023-07-20T11:26:19;0.60;;;0.50;;
55186;SDS011;55457;52.002;5.464;2023-07-20T11:28:51;1.35;;;0.50;;
55186;SDS011;55457;52.002;5.464;2023-07-20T11:31:17;0.75;;;0.50;;
55186;SDS011;55457;52.002;5.464;2023-07-20T11:33:45;1.33;;;0.30;;
55186;SDS011;55457;52.002;5.464;2023-07-20T11:36:11;0.65;;;0.60;;
55186;SDS011;55457;52.002;5.464;2023-07-20T11:38:38;0.73;;;0.38;;
55186;SDS011;55457;52.002;5.464;2023-07-20T11:41:06;1.98;;;0.50;;
55186;SDS011;55457;52.002;5.464;2023-07-20T11:43:32;1.65;;;0.68;;
55186;SDS011;55457;52.002;5.464;2023-07-20T11:45:58;1.02;;;0.40;;
55186;SDS011;55457;52.002;5.464;2023-07-20T11:48:24;0.93;;;0.55;;
55186;SDS011;55457;52.002;5.464;2023-07-20T11:50:49;1.08;;;0.43;;
55186;SDS011;55457;52.002;5.464;2023-07-20T11:53:15;0.38;;;0.30;;
55186;SDS011;55457;52.002;5.464;2023-07-20T11:55:41;0.60;;;0.30;;
55186;SDS011;55457;52.002;5.464;2023-07-20T11:58:07;0.60;;;0.40;;
55186;SDS011;55457;52.002;5.464;2023-07-20T12:00:34;2.30;;;0.40;;
55186;SDS011;55457;52.002;5.464;2023-07-20T12:03:01;1.10;;;0.70;;
55186;SDS011;55457;52.002;5.464;2023-07-20T12:05:32;0.68;;;0.47;;
55186;SDS011;55457;52.002;5.464;2023-07-20T12:07:57;0.95;;;0.60;;
55186;SDS011;55457;52.002;5.464;2023-07-20T12:10:23;5.20;;;0.40;;
55186;SDS011;55457;52.002;5.464;2023-07-20T12:12:53;0.95;;;0.25;;
55186;SDS011;55457;52.002;5.464;2023-07-20T12:17:55;4.72;;;0.47;;
55186;SDS011;55457;52.002;5.464;2023-07-20T12:20:34;0.77;;;0.45;;
55186;SDS011;55457;52.002;5.464;2023-07-20T12:23:11;0.30;;;0.30;;
55186;SDS011;55457;52.002;5.464;2023-07-20T12:25:44;1.58;;;0.50;;
55186;SDS011;55457;52.002;5.464;2023-07-20T12:28:12;1.58;;;0.50;;
55186;SDS011;55457;52.002;5.464;2023-07-20T12:30:39;0.90;;;0.38;;
55186;SDS011;55457;52.002;5.464;2023-07-20T12:33:06;1.40;;;0.50;;
55186;SDS011;55457;52.002;5.464;2023-07-20T12:35:32;4.60;;;0.65;;
55186;SDS011;55457;52.002;5.464;2023-07-20T12:37:58;0.77;;;0.50;;
55186;SDS011;55457;52.002;5.464;2023-07-20T12:40:23;0.47;;;0.40;;
55186;SDS011;55457;52.002;5.464;2023-07-20T12:42:49;1.27;;;0.50;;
55186;SDS011;55457;52.002;5.464;2023-07-20T12:45:15;0.95;;;0.47;;
55186;SDS011;55457;52.002;5.464;2023-07-20T12:47:40;1.58;;;0.40;;
55186;SDS011;55457;52.002;5.464;2023-07-20T12:50:09;0.70;;;0.43;;
55186;SDS011;55457;52.002;5.464;2023-07-20T12:52:38;1.23;;;0.40;;
55186;SDS011;55457;52.002;5.464;2023-07-20T12:55:05;0.57;;;0.40;;
55186;SDS011;55457;52.002;5.464;2023-07-20T12:57:32;2.35;;;0.70;;
55186;SDS011;55457;52.002;5.464;2023-07-20T13:00:00;0.65;;;0.50;;
55186;SDS011;55457;52.002;5.464;2023-07-20T13:02:32;0.43;;;0.30;;
55186;SDS011;55457;52.002;5.464;2023-07-20T13:04:58;0.45;;;0.30;;
55186;SDS011;55457;52.002;5.464;2023-07-20T13:07:30;1.52;;;0.45;;
55186;SDS011;55457;52.002;5.464;2023-07-20T13:09:57;1.13;;;0.50;;
55186;SDS011;55457;52.002;5.464;2023-07-20T13:12:25;0.63;;;0.40;;
55186;SDS011;55457;52.002;5.464;2023-07-20T13:14:50;1.85;;;0.35;;
55186;SDS011;55457;52.002;5.464;2023-07-20T13:17:15;0.70;;;0.22;;
55186;SDS011;55457;52.002;5.464;2023-07-20T13:19:41;0.82;;;0.40;;
55186;SDS011;55457;52.002;5.464;2023-07-20T13:22:06;1.77;;;0.55;;
55186;SDS011;55457;52.002;5.464;2023-07-20T13:24:31;1.27;;;0.50;;
55186;SDS011;55457;52.002;5.464;2023-07-20T13:26:57;3.33;;;0.50;;
55186;SDS011;55457;52.002;5.464;2023-07-20T13:29:23;0.82;;;0.30;;
55186;SDS011;55457;52.002;5.464;2023-07-20T13:31:49;0.75;;;0.60;;
55186;SDS011;55457;52.002;5.464;2023-07-20T13:34:14;0.68;;;0.47;;
55186;SDS011;55457;52.002;5.464;2023-07-20T13:36:40;1.67;;;0.60;;
55186;SDS011;55457;52.002;5.464;2023-07-20T13:39:05;0.45;;;0.40;;
55186;SDS011;55457;52.002;5.464;2023-07-20T13:41:31;2.15;;;0.55;;
55186;SDS011;55457;52.002;5.464;2023-07-20T13:43:57;0.45;;;0.45;;
55186;SDS011;55457;52.002;5.464;2023-07-20T13:46:22;3.28;;;0.50;;
55186;SDS011;55457;52.002;5.464;2023-07-20T13:48:48;2.35;;;0.85;;
55186;SDS011;55457;52.002;5.464;2023-07-20T13:51:14;0.82;;;0.40;;
55186;SDS011;55457;52.002;5.464;2023-07-20T13:53:40;0.95;;;0.40;;
55186;SDS011;55457;52.002;5.464;2023-07-20T13:56:06;1.40;;;0.70;;
55186;SDS011;55457;52.002;5.464;2023-07-20T13:58:32;1.92;;;0.40;;
55186;SDS011;55457;52.002;5.464;2023-07-20T14:00:57;1.08;;;0.60;;
55186;SDS011;55457;52.002;5.464;2023-07-20T14:03:23;0.57;;;0.40;;
55186;SDS011;55457;52.002;5.464;2023-07-20T14:05:49;1.00;;;0.55;;
55186;SDS011;55457;52.002;5.464;2023-07-20T14:08:15;1.38;;;0.50;;
55186;SDS011;55457;52.002;5.464;2023-07-20T14:10:41;2.47;;;0.88;;
55186;SDS011;55457;52.002;5.464;2023-07-20T14:13:06;1.10;;;0.50;;
55186;SDS011;55457;52.002;5.464;2023-07-20T14:15:32;3.03;;;0.60;;
55186;SDS011;55457;52.002;5.464;2023-07-20T14:17:59;0.60;;;0.40;;
55186;SDS011;55457;52.002;5.464;2023-07-20T14:20:25;0.50;;;0.40;;
55186;SDS011;55457;52.002;5.464;2023-07-20T14:22:50;0.90;;;0.40;;
55186;SDS011;55457;52.002;5.464;2023-07-20T14:25:15;1.58;;;0.32;;
55186;SDS011;55457;52.002;5.464;2023-07-20T14:27:41;1.30;;;0.85;;
55186;SDS011;55457;52.002;5.464;2023-07-20T14:30:06;0.40;;;0.30;;
55186;SDS011;55457;52.002;5.464;2023-07-20T14:32:33;1.77;;;0.40;;
55186;SDS011;55457;52.002;5.464;2023-07-20T14:34:59;0.95;;;0.40;;
55186;SDS011;55457;52.002;5.464;2023-07-20T14:37:24;0.40;;;0.40;;
55186;SDS011;55457;52.002;5.464;2023-07-20T14:39:50;0.63;;;0.47;;
55186;SDS011;55457;52.002;5.464;2023-07-20T14:42:15;1.58;;;0.50;;
55186;SDS011;55457;52.002;5.464;2023-07-20T14:44:40;1.42;;;0.60;;
55186;SDS011;55457;52.002;5.464;2023-07-20T14:47:06;2.38;;;0.60;;
55186;SDS011;55457;52.002;5.464;2023-07-20T14:49:31;1.80;;;0.55;;
55186;SDS011;55457;52.002;5.464;2023-07-20T14:51:57;0.50;;;0.50;;
55186;SDS011;55457;52.002;5.464;2023-07-20T14:54:22;0.63;;;0.50;;
55186;SDS011;55457;52.002;5.464;2023-07-20T14:56:51;1.25;;;0.77;;
55186;SDS011;55457;52.002;5.464;2023-07-20T14:59:17;0.88;;;0.68;;
55186;SDS011;55457;52.002;5.464;2023-07-20T15:01:43;0.73;;;0.50;;
55186;SDS011;55457;52.002;5.464;2023-07-20T15:04:12;1.02;;;0.63;;
55186;SDS011;55457;52.002;5.464;2023-07-20T15:06:39;0.80;;;0.50;;
55186;SDS011;55457;52.002;5.464;2023-07-20T15:09:04;0.60;;;0.40;;